sensor_id;sensor_type;location;lat;lon;timestamp;P1;durP1;ratioP1;P2;durP2;ratioP2
26718;SDS011;14326;50.794;6.060;2023-04-29T00:01:33;31.58;;;14.57;;
26718;SDS011;14326;50.794;6.060;2023-04-29T00:04:11;31.35;;;14.20;;
26718;SDS011;14326;50.794;6.060;2023-04-29T00:07:11;29.63;;;13.00;;
26718;SDS011;14326;50.794;6.060;2023-04-29T00:09:40;29.63;;;13.00;;
26718;SDS011;14326;50.794;6.060;2023-04-29T00:12:07;30.35;;;14.13;;
26718;SDS011;14326;50.794;6.060;2023-04-29T00:14:37;31.40;;;13.65;;
26718;SDS011;14326;50.794;6.060;2023-04-29T00:17:04;29.30;;;12.15;;
26718;SDS011;14326;50.794;6.060;2023-04-29T00:19:31;33.13;;;13.85;;
26718;SDS011;14326;50.794;6.060;2023-04-29T00:21:58;32.67;;;14.90;;
26718;SDS011;14326;50.794;6.060;2023-04-29T00:24:37;34.45;;;15.43;;
26718;SDS011;14326;50.794;6.060;2023-04-29T00:27:39;32.83;;;15.75;;
26718;SDS011;14326;50.794;6.060;2023-04-29T00:30:32;37.60;;;16.73;;
26718;SDS011;14326;50.794;6.060;2023-04-29T00:33:17;40.72;;;17.98;;
26718;SDS011;14326;50.794;6.060;2023-04-29T00:35:48;37.33;;;17.92;;
26718;SDS011;14326;50.794;6.060;2023-04-29T00:38:21;39.50;;;17.67;;
26718;SDS011;14326;50.794;6.060;2023-04-29T00:40:56;35.92;;;17.25;;
26718;SDS011;14326;50.794;6.060;2023-04-29T00:43:37;28.05;;;14.15;;
26718;SDS011;14326;50.794;6.060;2023-04-29T00:46:42;36.75;;;17.58;;
26718;SDS011;14326;50.794;6.060;2023-04-29T00:49:21;39.65;;;18.83;;
26718;SDS011;14326;50.794;6.060;2023-04-29T00:51:48;37.72;;;18.80;;
26718;SDS011;14326;50.794;6.060;2023-04-29T00:54:18;44.58;;;19.33;;
26718;SDS011;14326;50.794;6.060;2023-04-29T00:57:19;40.50;;;18.23;;
26718;SDS011;14326;50.794;6.060;2023-04-29T01:05:36;46.10;;;19.83;;
26718;SDS011;14326;50.794;6.060;2023-04-29T01:08:08;46.03;;;20.58;;
26718;SDS011;14326;50.794;6.060;2023-04-29T01:11:15;44.60;;;20.98;;
26718;SDS011;14326;50.794;6.060;2023-04-29T01:14:12;36.85;;;15.82;;
26718;SDS011;14326;50.794;6.060;2023-04-29T01:16:51;52.00;;;22.48;;
26718;SDS011;14326;50.794;6.060;2023-04-29T01:19:36;51.80;;;21.92;;
26718;SDS011;14326;50.794;6.060;2023-04-29T01:22:29;47.35;;;21.60;;
26718;SDS011;14326;50.794;6.060;2023-04-29T01:25:16;45.88;;;20.40;;
26718;SDS011;14326;50.794;6.060;2023-04-29T01:28:07;51.47;;;22.15;;
26718;SDS011;14326;50.794;6.060;2023-04-29T01:30:59;46.78;;;21.33;;
26718;SDS011;14326;50.794;6.060;2023-04-29T01:33:50;54.63;;;23.48;;
26718;SDS011;14326;50.794;6.060;2023-04-29T01:36:29;47.60;;;21.58;;
26718;SDS011;14326;50.794;6.060;2023-04-29T01:39:19;49.20;;;23.00;;
26718;SDS011;14326;50.794;6.060;2023-04-29T01:42:01;47.40;;;22.52;;
26718;SDS011;14326;50.794;6.060;2023-04-29T01:44:37;48.17;;;22.25;;
26718;SDS011;14326;50.794;6.060;2023-04-29T01:49:46;47.92;;;21.75;;
26718;SDS011;14326;50.794;6.060;2023-04-29T01:52:46;46.95;;;22.50;;
26718;SDS011;14326;50.794;6.060;2023-04-29T02:00:45;50.72;;;23.92;;
26718;SDS011;14326;50.794;6.060;2023-04-29T02:03:41;56.13;;;25.08;;
26718;SDS011;14326;50.794;6.060;2023-04-29T02:06:27;50.10;;;23.23;;
26718;SDS011;14326;50.794;6.060;2023-04-29T02:08:56;53.25;;;23.67;;
26718;SDS011;14326;50.794;6.060;2023-04-29T02:11:25;53.50;;;24.75;;
26718;SDS011;14326;50.794;6.060;2023-04-29T02:14:24;53.33;;;24.85;;
26718;SDS011;14326;50.794;6.060;2023-04-29T02:17:15;51.40;;;23.60;;
26718;SDS011;14326;50.794;6.060;2023-04-29T02:19:41;52.60;;;25.58;;
26718;SDS011;14326;50.794;6.060;2023-04-29T02:22:23;52.30;;;24.33;;
26718;SDS011;14326;50.794;6.060;2023-04-29T02:24:58;53.17;;;24.65;;
26718;SDS011;14326;50.794;6.060;2023-04-29T02:27:32;52.47;;;23.23;;
26718;SDS011;14326;50.794;6.060;2023-04-29T02:30:19;45.90;;;22.65;;
26718;SDS011;14326;50.794;6.060;2023-04-29T02:32:49;48.15;;;22.85;;
26718;SDS011;14326;50.794;6.060;2023-04-29T02:35:20;46.80;;;22.08;;
26718;SDS011;14326;50.794;6.060;2023-04-29T02:37:46;49.70;;;23.30;;
26718;SDS011;14326;50.794;6.060;2023-04-29T02:40:16;49.03;;;23.58;;
26718;SDS011;14326;50.794;6.060;2023-04-29T02:42:43;49.92;;;23.20;;
26718;SDS011;14326;50.794;6.060;2023-04-29T02:45:12;52.85;;;23.10;;
26718;SDS011;14326;50.794;6.060;2023-04-29T02:47:44;52.00;;;23.20;;
26718;SDS011;14326;50.794;6.060;2023-04-29T02:50:13;49.70;;;22.90;;
26718;SDS011;14326;50.794;6.060;2023-04-29T02:52:43;49.67;;;23.13;;
26718;SDS011;14326;50.794;6.060;2023-04-29T02:55:20;42.45;;;21.27;;
26718;SDS011;14326;50.794;6.060;2023-04-29T02:57:50;45.10;;;21.73;;
26718;SDS011;14326;50.794;6.060;2023-04-29T03:00:45;44.40;;;21.63;;
26718;SDS011;14326;50.794;6.060;2023-04-29T03:03:12;46.05;;;21.10;;
26718;SDS011;14326;50.794;6.060;2023-04-29T03:05:46;42.47;;;21.02;;
26718;SDS011;14326;50.794;6.060;2023-04-29T03:08:25;47.78;;;23.23;;
26718;SDS011;14326;50.794;6.060;2023-04-29T03:11:16;44.85;;;22.23;;
26718;SDS011;14326;50.794;6.060;2023-04-29T03:14:03;49.15;;;22.20;;
26718;SDS011;14326;50.794;6.060;2023-04-29T03:16:38;52.28;;;22.88;;
26718;SDS011;14326;50.794;6.060;2023-04-29T03:19:31;47.22;;;23.35;;
26718;SDS011;14326;50.794;6.060;2023-04-29T03:21:59;52.75;;;24.98;;
26718;SDS011;14326;50.794;6.060;2023-04-29T03:24:35;50.05;;;23.20;;
26718;SDS011;14326;50.794;6.060;2023-04-29T03:27:08;51.22;;;23.95;;
26718;SDS011;14326;50.794;6.060;2023-04-29T03:29:41;52.45;;;24.65;;
26718;SDS011;14326;50.794;6.060;2023-04-29T03:32:31;52.78;;;24.38;;
26718;SDS011;14326;50.794;6.060;2023-04-29T03:34:59;52.13;;;24.23;;
26718;SDS011;14326;50.794;6.060;2023-04-29T03:37:28;61.28;;;26.88;;
26718;SDS011;14326;50.794;6.060;2023-04-29T03:40:21;54.92;;;25.52;;
26718;SDS011;14326;50.794;6.060;2023-04-29T03:42:48;53.28;;;25.33;;
26718;SDS011;14326;50.794;6.060;2023-04-29T03:48:05;59.10;;;25.67;;
26718;SDS011;14326;50.794;6.060;2023-04-29T03:50:33;62.15;;;27.45;;
26718;SDS011;14326;50.794;6.060;2023-04-29T03:53:00;60.42;;;27.55;;
26718;SDS011;14326;50.794;6.060;2023-04-29T03:55:27;70.47;;;29.35;;
26718;SDS011;14326;50.794;6.060;2023-04-29T03:57:53;69.55;;;30.15;;
26718;SDS011;14326;50.794;6.060;2023-04-29T04:00:20;71.57;;;30.25;;
26718;SDS011;14326;50.794;6.060;2023-04-29T04:02:48;69.93;;;32.15;;
26718;SDS011;14326;50.794;6.060;2023-04-29T04:05:14;73.50;;;32.08;;
26718;SDS011;14326;50.794;6.060;2023-04-29T04:07:44;73.00;;;32.63;;
26718;SDS011;14326;50.794;6.060;2023-04-29T04:10:11;85.43;;;35.65;;
26718;SDS011;14326;50.794;6.060;2023-04-29T04:12:38;83.40;;;36.03;;
26718;SDS011;14326;50.794;6.060;2023-04-29T04:15:05;84.57;;;37.33;;
26718;SDS011;14326;50.794;6.060;2023-04-29T04:17:32;85.05;;;37.38;;
26718;SDS011;14326;50.794;6.060;2023-04-29T04:20:00;85.63;;;39.22;;
26718;SDS011;14326;50.794;6.060;2023-04-29T04:22:27;95.45;;;39.38;;
26718;SDS011;14326;50.794;6.060;2023-04-29T04:25:03;96.70;;;40.22;;
26718;SDS011;14326;50.794;6.060;2023-04-29T04:27:31;100.93;;;39.00;;
26718;SDS011;14326;50.794;6.060;2023-04-29T04:29:57;88.88;;;38.67;;
26718;SDS011;14326;50.794;6.060;2023-04-29T04:32:25;93.35;;;38.47;;
26718;SDS011;14326;50.794;6.060;2023-04-29T04:40:17;103.97;;;41.13;;
26718;SDS011;14326;50.794;6.060;2023-04-29T04:42:44;93.20;;;38.25;;
26718;SDS011;14326;50.794;6.060;2023-04-29T04:45:10;93.72;;;38.72;;
26718;SDS011;14326;50.794;6.060;2023-04-29T04:47:39;85.70;;;37.78;;
26718;SDS011;14326;50.794;6.060;2023-04-29T04:50:06;91.65;;;38.80;;
26718;SDS011;14326;50.794;6.060;2023-04-29T04:52:33;83.15;;;37.15;;
26718;SDS011;14326;50.794;6.060;2023-04-29T04:55:00;87.40;;;37.78;;
26718;SDS011;14326;50.794;6.060;2023-04-29T04:57:29;80.15;;;34.92;;
26718;SDS011;14326;50.794;6.060;2023-04-29T04:59:58;65.93;;;31.15;;
26718;SDS011;14326;50.794;6.060;2023-04-29T05:05:04;62.53;;;28.15;;
26718;SDS011;14326;50.794;6.060;2023-04-29T05:07:31;59.55;;;24.88;;
26718;SDS011;14326;50.794;6.060;2023-04-29T05:09:59;57.50;;;26.23;;
26718;SDS011;14326;50.794;6.060;2023-04-29T05:12:28;59.42;;;27.10;;
26718;SDS011;14326;50.794;6.060;2023-04-29T05:22:47;53.60;;;24.75;;
26718;SDS011;14326;50.794;6.060;2023-04-29T05:25:13;58.15;;;26.48;;
26718;SDS011;14326;50.794;6.060;2023-04-29T05:27:42;54.13;;;24.67;;
26718;SDS011;14326;50.794;6.060;2023-04-29T05:30:09;59.67;;;24.48;;
26718;SDS011;14326;50.794;6.060;2023-04-29T05:32:36;57.05;;;24.75;;
26718;SDS011;14326;50.794;6.060;2023-04-29T05:35:02;54.10;;;24.13;;
26718;SDS011;14326;50.794;6.060;2023-04-29T05:37:32;68.65;;;22.30;;
26718;SDS011;14326;50.794;6.060;2023-04-29T05:40:05;49.80;;;21.35;;
26718;SDS011;14326;50.794;6.060;2023-04-29T05:42:36;39.67;;;16.02;;
26718;SDS011;14326;50.794;6.060;2023-04-29T05:45:20;52.60;;;21.77;;
26718;SDS011;14326;50.794;6.060;2023-04-29T05:50:31;47.70;;;20.05;;
26718;SDS011;14326;50.794;6.060;2023-04-29T05:53:00;43.42;;;20.25;;
26718;SDS011;14326;50.794;6.060;2023-04-29T05:55:27;43.38;;;18.35;;
26718;SDS011;14326;50.794;6.060;2023-04-29T05:58:02;47.03;;;19.77;;
26718;SDS011;14326;50.794;6.060;2023-04-29T06:00:57;45.25;;;17.67;;
26718;SDS011;14326;50.794;6.060;2023-04-29T06:04:08;30.25;;;13.50;;
26718;SDS011;14326;50.794;6.060;2023-04-29T06:09:11;41.40;;;17.40;;
26718;SDS011;14326;50.794;6.060;2023-04-29T06:11:44;40.80;;;17.48;;
26718;SDS011;14326;50.794;6.060;2023-04-29T06:16:50;44.47;;;18.58;;
26718;SDS011;14326;50.794;6.060;2023-04-29T06:26:58;39.28;;;17.33;;
26718;SDS011;14326;50.794;6.060;2023-04-29T06:29:31;41.78;;;18.23;;
26718;SDS011;14326;50.794;6.060;2023-04-29T06:31:59;37.20;;;17.45;;
26718;SDS011;14326;50.794;6.060;2023-04-29T06:34:26;39.42;;;18.15;;
26718;SDS011;14326;50.794;6.060;2023-04-29T06:36:58;39.88;;;17.92;;
26718;SDS011;14326;50.794;6.060;2023-04-29T06:48:12;38.53;;;17.23;;
26718;SDS011;14326;50.794;6.060;2023-04-29T06:50:47;39.55;;;17.48;;
26718;SDS011;14326;50.794;6.060;2023-04-29T06:53:16;42.20;;;18.80;;
26718;SDS011;14326;50.794;6.060;2023-04-29T06:55:51;41.67;;;19.00;;
26718;SDS011;14326;50.794;6.060;2023-04-29T07:01:23;50.67;;;19.40;;
26718;SDS011;14326;50.794;6.060;2023-04-29T07:04:05;41.75;;;19.40;;
26718;SDS011;14326;50.794;6.060;2023-04-29T07:06:33;30.48;;;13.35;;
26718;SDS011;14326;50.794;6.060;2023-04-29T07:09:01;37.10;;;16.55;;
26718;SDS011;14326;50.794;6.060;2023-04-29T07:11:28;36.22;;;16.50;;
26718;SDS011;14326;50.794;6.060;2023-04-29T07:13:55;38.25;;;16.45;;
26718;SDS011;14326;50.794;6.060;2023-04-29T07:16:22;34.88;;;15.73;;
26718;SDS011;14326;50.794;6.060;2023-04-29T07:18:50;37.80;;;16.30;;
26718;SDS011;14326;50.794;6.060;2023-04-29T07:21:32;33.78;;;15.35;;
26718;SDS011;14326;50.794;6.060;2023-04-29T07:24:18;33.30;;;14.52;;
26718;SDS011;14326;50.794;6.060;2023-04-29T07:27:07;35.97;;;15.55;;
26718;SDS011;14326;50.794;6.060;2023-04-29T07:29:45;33.15;;;14.73;;
26718;SDS011;14326;50.794;6.060;2023-04-29T07:32:16;33.97;;;14.07;;
26718;SDS011;14326;50.794;6.060;2023-04-29T07:34:59;37.30;;;15.38;;
26718;SDS011;14326;50.794;6.060;2023-04-29T07:37:40;30.60;;;13.98;;
26718;SDS011;14326;50.794;6.060;2023-04-29T07:40:10;32.08;;;13.85;;
26718;SDS011;14326;50.794;6.060;2023-04-29T07:42:38;32.83;;;13.52;;
26718;SDS011;14326;50.794;6.060;2023-04-29T07:45:15;30.52;;;12.43;;
26718;SDS011;14326;50.794;6.060;2023-04-29T07:47:48;34.38;;;14.82;;
26718;SDS011;14326;50.794;6.060;2023-04-29T07:50:22;30.45;;;12.57;;
26718;SDS011;14326;50.794;6.060;2023-04-29T07:52:52;34.40;;;13.45;;
26718;SDS011;14326;50.794;6.060;2023-04-29T08:08:42;30.55;;;13.00;;
26718;SDS011;14326;50.794;6.060;2023-04-29T08:11:14;21.95;;;10.02;;
26718;SDS011;14326;50.794;6.060;2023-04-29T08:16:41;28.08;;;10.85;;
26718;SDS011;14326;50.794;6.060;2023-04-29T08:19:16;28.00;;;10.95;;
26718;SDS011;14326;50.794;6.060;2023-04-29T08:21:43;25.10;;;9.63;;
26718;SDS011;14326;50.794;6.060;2023-04-29T08:24:11;25.85;;;10.55;;
26718;SDS011;14326;50.794;6.060;2023-04-29T08:26:39;28.25;;;11.25;;
26718;SDS011;14326;50.794;6.060;2023-04-29T08:29:08;29.40;;;12.77;;
26718;SDS011;14326;50.794;6.060;2023-04-29T08:31:39;28.45;;;11.95;;
26718;SDS011;14326;50.794;6.060;2023-04-29T08:34:09;30.15;;;11.95;;
26718;SDS011;14326;50.794;6.060;2023-04-29T08:36:36;29.23;;;11.73;;
26718;SDS011;14326;50.794;6.060;2023-04-29T08:39:03;29.58;;;12.85;;
26718;SDS011;14326;50.794;6.060;2023-04-29T08:46:50;33.53;;;14.45;;
26718;SDS011;14326;50.794;6.060;2023-04-29T08:49:20;32.95;;;12.75;;
26718;SDS011;14326;50.794;6.060;2023-04-29T08:51:54;32.17;;;12.88;;
26718;SDS011;14326;50.794;6.060;2023-04-29T08:54:20;30.48;;;12.60;;
26718;SDS011;14326;50.794;6.060;2023-04-29T08:56:49;29.38;;;12.95;;
26718;SDS011;14326;50.794;6.060;2023-04-29T08:59:17;32.80;;;13.40;;
26718;SDS011;14326;50.794;6.060;2023-04-29T09:01:46;32.42;;;13.90;;
26718;SDS011;14326;50.794;6.060;2023-04-29T09:04:20;30.65;;;12.65;;
26718;SDS011;14326;50.794;6.060;2023-04-29T09:07:06;32.78;;;14.02;;
26718;SDS011;14326;50.794;6.060;2023-04-29T09:09:42;32.05;;;13.50;;
26718;SDS011;14326;50.794;6.060;2023-04-29T09:12:19;24.27;;;9.93;;
26718;SDS011;14326;50.794;6.060;2023-04-29T09:14:46;29.27;;;12.45;;
26718;SDS011;14326;50.794;6.060;2023-04-29T09:20:37;27.92;;;11.48;;
26718;SDS011;14326;50.794;6.060;2023-04-29T09:23:23;29.30;;;11.70;;
26718;SDS011;14326;50.794;6.060;2023-04-29T09:35:49;31.65;;;12.80;;
26718;SDS011;14326;50.794;6.060;2023-04-29T09:38:16;28.17;;;12.35;;
26718;SDS011;14326;50.794;6.060;2023-04-29T09:40:43;27.67;;;12.15;;
26718;SDS011;14326;50.794;6.060;2023-04-29T09:43:10;28.58;;;11.90;;
26718;SDS011;14326;50.794;6.060;2023-04-29T09:45:39;28.77;;;12.68;;
26718;SDS011;14326;50.794;6.060;2023-04-29T09:48:07;27.02;;;11.40;;
26718;SDS011;14326;50.794;6.060;2023-04-29T09:50:36;28.85;;;11.85;;
26718;SDS011;14326;50.794;6.060;2023-04-29T09:53:26;29.75;;;13.90;;
26718;SDS011;14326;50.794;6.060;2023-04-29T09:55:57;30.75;;;13.15;;
26718;SDS011;14326;50.794;6.060;2023-04-29T10:01:11;27.25;;;11.65;;
26718;SDS011;14326;50.794;6.060;2023-04-29T10:03:48;30.48;;;12.77;;
26718;SDS011;14326;50.794;6.060;2023-04-29T10:06:31;30.80;;;13.00;;
26718;SDS011;14326;50.794;6.060;2023-04-29T10:12:19;27.05;;;11.80;;
26718;SDS011;14326;50.794;6.060;2023-04-29T10:14:58;29.65;;;11.93;;
26718;SDS011;14326;50.794;6.060;2023-04-29T10:17:51;27.95;;;11.75;;
26718;SDS011;14326;50.794;6.060;2023-04-29T10:20:34;25.50;;;10.80;;
26718;SDS011;14326;50.794;6.060;2023-04-29T10:23:04;27.88;;;11.93;;
26718;SDS011;14326;50.794;6.060;2023-04-29T10:25:52;24.75;;;10.48;;
26718;SDS011;14326;50.794;6.060;2023-04-29T10:28:47;24.20;;;10.30;;
26718;SDS011;14326;50.794;6.060;2023-04-29T10:31:30;26.20;;;10.15;;
26718;SDS011;14326;50.794;6.060;2023-04-29T10:34:37;24.45;;;9.48;;
26718;SDS011;14326;50.794;6.060;2023-04-29T10:39:54;24.00;;;10.02;;
26718;SDS011;14326;50.794;6.060;2023-04-29T10:42:52;22.02;;;9.57;;
26718;SDS011;14326;50.794;6.060;2023-04-29T10:45:29;21.02;;;9.05;;
26718;SDS011;14326;50.794;6.060;2023-04-29T10:51:04;23.10;;;9.80;;
26718;SDS011;14326;50.794;6.060;2023-04-29T10:53:31;25.38;;;11.00;;
26718;SDS011;14326;50.794;6.060;2023-04-29T10:56:02;24.63;;;10.35;;
26718;SDS011;14326;50.794;6.060;2023-04-29T10:58:36;26.60;;;10.52;;
26718;SDS011;14326;50.794;6.060;2023-04-29T11:01:04;25.48;;;10.38;;
26718;SDS011;14326;50.794;6.060;2023-04-29T11:03:45;27.90;;;10.57;;
26718;SDS011;14326;50.794;6.060;2023-04-29T11:06:23;25.85;;;10.60;;
26718;SDS011;14326;50.794;6.060;2023-04-29T11:09:03;25.52;;;10.80;;
26718;SDS011;14326;50.794;6.060;2023-04-29T11:14:57;25.92;;;10.77;;
26718;SDS011;14326;50.794;6.060;2023-04-29T11:17:35;25.80;;;10.93;;
26718;SDS011;14326;50.794;6.060;2023-04-29T11:20:02;27.88;;;11.75;;
26718;SDS011;14326;50.794;6.060;2023-04-29T11:22:29;24.13;;;10.85;;
26718;SDS011;14326;50.794;6.060;2023-04-29T11:24:58;27.10;;;11.20;;
26718;SDS011;14326;50.794;6.060;2023-04-29T11:27:36;24.42;;;10.55;;
26718;SDS011;14326;50.794;6.060;2023-04-29T11:30:23;26.75;;;11.45;;
26718;SDS011;14326;50.794;6.060;2023-04-29T11:33:30;25.65;;;10.88;;
26718;SDS011;14326;50.794;6.060;2023-04-29T11:36:06;26.75;;;11.02;;
26718;SDS011;14326;50.794;6.060;2023-04-29T11:38:37;29.33;;;11.93;;
26718;SDS011;14326;50.794;6.060;2023-04-29T11:41:10;29.75;;;12.88;;
26718;SDS011;14326;50.794;6.060;2023-04-29T11:44:00;31.38;;;12.63;;
26718;SDS011;14326;50.794;6.060;2023-04-29T11:49:45;26.70;;;12.48;;
26718;SDS011;14326;50.794;6.060;2023-04-29T11:55:33;27.83;;;12.45;;
26718;SDS011;14326;50.794;6.060;2023-04-29T12:01:28;26.73;;;12.95;;
26718;SDS011;14326;50.794;6.060;2023-04-29T12:04:05;28.13;;;12.30;;
26718;SDS011;14326;50.794;6.060;2023-04-29T12:06:40;26.15;;;13.13;;
26718;SDS011;14326;50.794;6.060;2023-04-29T12:09:26;30.60;;;13.35;;
26718;SDS011;14326;50.794;6.060;2023-04-29T12:12:00;29.23;;;13.48;;
26718;SDS011;14326;50.794;6.060;2023-04-29T12:15:17;28.40;;;12.65;;
26718;SDS011;14326;50.794;6.060;2023-04-29T12:17:51;30.33;;;14.02;;
26718;SDS011;14326;50.794;6.060;2023-04-29T12:20:19;32.20;;;14.70;;
26718;SDS011;14326;50.794;6.060;2023-04-29T12:22:52;29.08;;;14.82;;
26718;SDS011;14326;50.794;6.060;2023-04-29T12:25:23;30.20;;;15.88;;
26718;SDS011;14326;50.794;6.060;2023-04-29T12:27:51;31.55;;;15.40;;
26718;SDS011;14326;50.794;6.060;2023-04-29T12:30:35;36.65;;;16.50;;
26718;SDS011;14326;50.794;6.060;2023-04-29T12:33:02;35.83;;;16.77;;
26718;SDS011;14326;50.794;6.060;2023-04-29T12:38:11;33.17;;;15.55;;
26718;SDS011;14326;50.794;6.060;2023-04-29T12:41:00;27.30;;;13.03;;
26718;SDS011;14326;50.794;6.060;2023-04-29T12:43:47;33.53;;;15.93;;
26718;SDS011;14326;50.794;6.060;2023-04-29T12:46:43;40.63;;;17.00;;
26718;SDS011;14326;50.794;6.060;2023-04-29T12:49:52;31.75;;;17.25;;
26718;SDS011;14326;50.794;6.060;2023-04-29T12:52:24;30.65;;;14.52;;
26718;SDS011;14326;50.794;6.060;2023-04-29T12:54:55;34.08;;;15.60;;
26718;SDS011;14326;50.794;6.060;2023-04-29T12:57:23;32.10;;;16.10;;
26718;SDS011;14326;50.794;6.060;2023-04-29T12:59:50;33.40;;;16.10;;
26718;SDS011;14326;50.794;6.060;2023-04-29T13:05:14;30.80;;;15.30;;
26718;SDS011;14326;50.794;6.060;2023-04-29T13:07:42;34.03;;;15.40;;
26718;SDS011;14326;50.794;6.060;2023-04-29T13:10:09;33.75;;;16.20;;
26718;SDS011;14326;50.794;6.060;2023-04-29T13:15:12;33.35;;;16.13;;
26718;SDS011;14326;50.794;6.060;2023-04-29T13:17:39;33.35;;;16.02;;
26718;SDS011;14326;50.794;6.060;2023-04-29T13:20:06;37.10;;;17.05;;
26718;SDS011;14326;50.794;6.060;2023-04-29T13:22:35;31.30;;;16.23;;
26718;SDS011;14326;50.794;6.060;2023-04-29T13:25:05;33.67;;;15.55;;
26718;SDS011;14326;50.794;6.060;2023-04-29T13:27:36;32.78;;;17.13;;
26718;SDS011;14326;50.794;6.060;2023-04-29T13:32:40;30.15;;;15.48;;
26718;SDS011;14326;50.794;6.060;2023-04-29T13:35:08;33.92;;;16.92;;
26718;SDS011;14326;50.794;6.060;2023-04-29T13:40:38;33.92;;;16.85;;
26718;SDS011;14326;50.794;6.060;2023-04-29T13:43:05;31.20;;;15.82;;
26718;SDS011;14326;50.794;6.060;2023-04-29T13:45:32;32.13;;;15.70;;
26718;SDS011;14326;50.794;6.060;2023-04-29T13:47:59;31.85;;;14.82;;
26718;SDS011;14326;50.794;6.060;2023-04-29T13:50:26;30.70;;;15.60;;
26718;SDS011;14326;50.794;6.060;2023-04-29T14:18:02;35.15;;;17.88;;
26718;SDS011;14326;50.794;6.060;2023-04-29T14:20:31;33.58;;;16.83;;
26718;SDS011;14326;50.794;6.060;2023-04-29T14:23:00;29.63;;;15.35;;
26718;SDS011;14326;50.794;6.060;2023-04-29T14:25:28;31.38;;;16.52;;
26718;SDS011;14326;50.794;6.060;2023-04-29T14:27:55;29.67;;;14.95;;
26718;SDS011;14326;50.794;6.060;2023-04-29T14:30:24;30.67;;;16.25;;
26718;SDS011;14326;50.794;6.060;2023-04-29T14:32:58;31.65;;;15.32;;
26718;SDS011;14326;50.794;6.060;2023-04-29T14:35:37;33.03;;;15.33;;
26718;SDS011;14326;50.794;6.060;2023-04-29T14:38:07;30.73;;;14.65;;
26718;SDS011;14326;50.794;6.060;2023-04-29T14:40:55;32.67;;;15.85;;
26718;SDS011;14326;50.794;6.060;2023-04-29T14:43:22;29.95;;;14.55;;
26718;SDS011;14326;50.794;6.060;2023-04-29T14:48:55;37.40;;;17.52;;
26718;SDS011;14326;50.794;6.060;2023-04-29T14:51:22;29.92;;;14.85;;
26718;SDS011;14326;50.794;6.060;2023-04-29T14:53:48;27.58;;;13.00;;
26718;SDS011;14326;50.794;6.060;2023-04-29T14:56:20;28.30;;;13.38;;
26718;SDS011;14326;50.794;6.060;2023-04-29T14:58:47;27.63;;;13.23;;
26718;SDS011;14326;50.794;6.060;2023-04-29T15:01:14;26.15;;;12.07;;
26718;SDS011;14326;50.794;6.060;2023-04-29T15:03:40;24.08;;;10.82;;
26718;SDS011;14326;50.794;6.060;2023-04-29T15:06:08;27.15;;;11.73;;
26718;SDS011;14326;50.794;6.060;2023-04-29T15:08:45;24.75;;;11.45;;
26718;SDS011;14326;50.794;6.060;2023-04-29T15:11:41;26.45;;;11.27;;
26718;SDS011;14326;50.794;6.060;2023-04-29T15:14:08;26.10;;;11.45;;
26718;SDS011;14326;50.794;6.060;2023-04-29T15:16:34;34.30;;;16.40;;
26718;SDS011;14326;50.794;6.060;2023-04-29T15:19:05;25.00;;;12.23;;
26718;SDS011;14326;50.794;6.060;2023-04-29T15:21:39;25.38;;;12.20;;
26718;SDS011;14326;50.794;6.060;2023-04-29T15:24:14;27.63;;;13.60;;
26718;SDS011;14326;50.794;6.060;2023-04-29T15:26:40;28.00;;;12.38;;
26718;SDS011;14326;50.794;6.060;2023-04-29T15:29:11;25.77;;;11.80;;
26718;SDS011;14326;50.794;6.060;2023-04-29T15:31:53;24.67;;;11.52;;
26718;SDS011;14326;50.794;6.060;2023-04-29T15:34:33;25.90;;;11.57;;
26718;SDS011;14326;50.794;6.060;2023-04-29T15:37:08;25.52;;;12.65;;
26718;SDS011;14326;50.794;6.060;2023-04-29T15:39:35;26.35;;;11.00;;
26718;SDS011;14326;50.794;6.060;2023-04-29T15:42:11;24.33;;;11.15;;
26718;SDS011;14326;50.794;6.060;2023-04-29T15:44:37;24.02;;;10.75;;
26718;SDS011;14326;50.794;6.060;2023-04-29T15:47:04;23.90;;;11.52;;
26718;SDS011;14326;50.794;6.060;2023-04-29T15:49:34;27.20;;;12.27;;
26718;SDS011;14326;50.794;6.060;2023-04-29T15:52:07;27.27;;;12.43;;
26718;SDS011;14326;50.794;6.060;2023-04-29T15:54:45;26.00;;;12.40;;
26718;SDS011;14326;50.794;6.060;2023-04-29T15:57:45;27.58;;;13.10;;
26718;SDS011;14326;50.794;6.060;2023-04-29T16:00:30;26.05;;;12.48;;
26718;SDS011;14326;50.794;6.060;2023-04-29T16:05:33;25.15;;;12.30;;
26718;SDS011;14326;50.794;6.060;2023-04-29T16:08:04;24.77;;;11.43;;
26718;SDS011;14326;50.794;6.060;2023-04-29T16:10:30;32.00;;;16.50;;
26718;SDS011;14326;50.794;6.060;2023-04-29T16:13:03;26.63;;;13.63;;
26718;SDS011;14326;50.794;6.060;2023-04-29T16:16:01;37.20;;;14.23;;
26718;SDS011;14326;50.794;6.060;2023-04-29T16:18:51;29.67;;;14.23;;
26718;SDS011;14326;50.794;6.060;2023-04-29T16:21:18;27.67;;;13.15;;
26718;SDS011;14326;50.794;6.060;2023-04-29T16:23:47;26.45;;;13.07;;
26718;SDS011;14326;50.794;6.060;2023-04-29T16:26:27;29.80;;;15.23;;
26718;SDS011;14326;50.794;6.060;2023-04-29T16:28:54;27.52;;;13.60;;
26718;SDS011;14326;50.794;6.060;2023-04-29T16:33:57;28.63;;;14.13;;
26718;SDS011;14326;50.794;6.060;2023-04-29T16:41:44;29.23;;;14.07;;
26718;SDS011;14326;50.794;6.060;2023-04-29T16:44:32;21.60;;;10.23;;
26718;SDS011;14326;50.794;6.060;2023-04-29T16:52:32;29.10;;;13.05;;
26718;SDS011;14326;50.794;6.060;2023-04-29T16:55:08;26.85;;;13.02;;
26718;SDS011;14326;50.794;6.060;2023-04-29T16:57:45;25.08;;;11.73;;
26718;SDS011;14326;50.794;6.060;2023-04-29T17:00:17;25.85;;;11.77;;
26718;SDS011;14326;50.794;6.060;2023-04-29T17:02:49;33.13;;;13.05;;
26718;SDS011;14326;50.794;6.060;2023-04-29T17:05:17;26.15;;;11.77;;
26718;SDS011;14326;50.794;6.060;2023-04-29T17:07:44;25.75;;;12.32;;
26718;SDS011;14326;50.794;6.060;2023-04-29T17:10:10;26.38;;;11.02;;
26718;SDS011;14326;50.794;6.060;2023-04-29T17:12:47;24.83;;;12.02;;
26718;SDS011;14326;50.794;6.060;2023-04-29T17:15:14;23.90;;;11.15;;
26718;SDS011;14326;50.794;6.060;2023-04-29T17:17:43;26.00;;;11.73;;
26718;SDS011;14326;50.794;6.060;2023-04-29T17:20:18;25.40;;;11.77;;
26718;SDS011;14326;50.794;6.060;2023-04-29T17:22:45;27.63;;;12.82;;
26718;SDS011;14326;50.794;6.060;2023-04-29T17:25:12;26.45;;;12.60;;
26718;SDS011;14326;50.794;6.060;2023-04-29T17:27:44;31.27;;;13.20;;
26718;SDS011;14326;50.794;6.060;2023-04-29T17:30:27;26.38;;;12.55;;
26718;SDS011;14326;50.794;6.060;2023-04-29T17:33:08;26.23;;;12.75;;
26718;SDS011;14326;50.794;6.060;2023-04-29T17:36:00;27.65;;;14.75;;
26718;SDS011;14326;50.794;6.060;2023-04-29T17:38:38;27.25;;;12.63;;
26718;SDS011;14326;50.794;6.060;2023-04-29T17:41:22;24.67;;;11.52;;
26718;SDS011;14326;50.794;6.060;2023-04-29T17:44:03;24.63;;;12.47;;
26718;SDS011;14326;50.794;6.060;2023-04-29T17:46:49;23.17;;;11.63;;
26718;SDS011;14326;50.794;6.060;2023-04-29T17:52:44;26.25;;;11.65;;
26718;SDS011;14326;50.794;6.060;2023-04-29T17:55:41;25.02;;;11.52;;
26718;SDS011;14326;50.794;6.060;2023-04-29T17:58:21;23.98;;;11.43;;
26718;SDS011;14326;50.794;6.060;2023-04-29T18:00:49;24.00;;;11.95;;
26718;SDS011;14326;50.794;6.060;2023-04-29T18:03:16;27.80;;;12.80;;
26718;SDS011;14326;50.794;6.060;2023-04-29T18:05:42;25.25;;;11.70;;